Time;durP1;ratioP1;P1;durP2;ratioP2;P2;SDS_P1;SDS_P2;PMS_P1;PMS_P2;Temp;Humidity;BMP_temperature;BMP_pressure;BME280_temperature;BME280_humidity;BME280_pressure;Samples;Min_cycle;Max_cycle;Signal;HPM_P1;HPM_P2
2022/12/07 00:01:48;;;;;;;9.60;6.10;;;2.80;99.90;;;2.74;100.00;100790.34;4865413;29;20214;-71
2022/12/07 00:04:26;;;;;;;9.32;5.38;;;2.80;99.90;;;2.78;100.00;100785.50;4877237;29;20234;-71
2022/12/07 00:06:57;;;;;;;9.00;5.32;;;2.80;99.90;;;2.82;100.00;100782.38;4863638;29;20184;-70
2022/12/07 00:09:26;;;;;;;12.38;6.05;;;2.90;99.90;;;2.60;100.00;100782.88;4892974;29;20702;-72
2022/12/07 00:11:54;;;;;;;14.88;6.85;;;2.70;99.90;;;2.57;100.00;100775.13;4900599;29;20274;-70
2022/12/07 00:14:23;;;;;;;11.98;6.38;;;2.70;99.90;;;2.58;100.00;100764.31;4876031;29;20712;-71
2022/12/07 00:16:53;;;;;;;10.90;6.60;;;2.70;99.90;;;2.63;100.00;100771.84;4870323;29;20678;-72
2022/12/07 00:19:22;;;;;;;12.23;6.07;;;2.70;99.90;;;2.61;100.00;100771.19;4882689;29;20183;-70
2022/12/07 00:21:51;;;;;;;12.18;6.82;;;2.70;99.90;;;2.62;100.00;100772.84;4888544;29;20593;-71
2022/12/07 00:24:23;;;;;;;13.32;7.32;;;2.70;99.90;;;2.60;100.00;100761.50;4864009;29;20258;-71
2022/12/07 00:26:53;;;;;;;9.98;6.35;;;2.70;99.90;;;2.49;100.00;100762.56;4864929;29;20695;-72
2022/12/07 00:29:26;;;;;;;9.73;5.85;;;2.60;99.90;;;2.50;100.00;100760.72;4881768;29;20190;-71
2022/12/07 00:31:56;;;;;;;8.20;5.35;;;2.60;99.90;;;2.62;100.00;100760.34;4879007;29;20214;-71
2022/12/07 00:34:25;;;;;;;9.68;5.90;;;2.70;99.90;;;2.60;100.00;100756.16;4868734;29;20234;-70
2022/12/07 00:36:56;;;;;;;14.52;6.95;;;2.70;99.90;;;2.66;100.00;100758.22;4858387;29;20586;-70
2022/12/07 00:39:28;;;;;;;9.07;6.18;;;2.80;99.90;;;2.63;100.00;100761.16;4865206;29;20719;-72
2022/12/07 00:41:58;;;;;;;10.18;6.43;;;2.70;99.90;;;2.58;100.00;100752.78;4879653;29;20207;-71
2022/12/07 00:44:28;;;;;;;10.13;7.07;;;2.70;99.90;;;2.61;100.00;100749.81;4876852;29;20636;-71
2022/12/07 00:46:59;;;;;;;12.57;6.43;;;2.70;99.90;;;2.63;100.00;100750.47;4877031;29;20278;-71
2022/12/07 00:49:29;;;;;;;12.68;6.47;;;2.70;99.90;;;2.62;100.00;100746.13;4881401;29;20199;-70
2022/12/07 00:52:00;;;;;;;11.00;7.63;;;2.70;99.90;;;2.42;100.00;100747.31;4876872;29;20206;-71
2022/12/07 00:54:33;;;;;;;9.82;6.55;;;2.60;99.90;;;2.39;100.00;100751.13;4879225;29;20303;-70
2022/12/07 00:57:03;;;;;;;16.58;5.68;;;2.50;99.90;;;2.35;100.00;100746.22;4862203;29;20207;-69
2022/12/07 00:59:34;;;;;;;12.02;6.82;;;2.50;99.90;;;2.20;100.00;100751.25;4870545;29;20211;-71
2022/12/07 01:02:05;;;;;;;11.25;6.38;;;2.40;99.90;;;2.17;100.00;100743.56;4864329;29;20233;-71
2022/12/07 01:04:36;;;;;;;11.93;5.30;;;2.40;99.90;;;2.00;100.00;100737.22;4864266;29;20234;-72
2022/12/07 01:07:06;;;;;;;8.95;5.47;;;2.20;99.90;;;1.87;100.00;100742.09;4863979;29;20206;-71
2022/12/07 01:09:38;;;;;;;9.82;6.00;;;2.10;99.90;;;1.91;100.00;100738.13;4864171;29;20203;-71
2022/12/07 01:12:08;;;;;;;12.27;7.03;;;2.10;99.90;;;2.00;100.00;100734.53;4863894;29;20206;-70
2022/12/07 01:22:30;;;;;;;11.57;6.88;;;2.20;99.90;;;2.07;100.00;100719.63;4893608;29;20221;-71
2022/12/07 01:25:03;;;;;;;10.25;6.72;;;2.20;99.90;;;2.13;99.61;100727.00;4863750;29;20253;-70
2022/12/07 01:27:34;;;;;;;12.35;7.55;;;2.20;99.90;;;2.04;99.07;100721.72;4863850;29;20205;-70
2022/12/07 01:30:09;;;;;;;9.82;5.45;;;2.20;99.90;;;2.03;99.62;100726.22;4879405;29;20670;-69
2022/12/07 01:32:39;;;;;;;11.40;6.60;;;2.20;99.90;;;2.06;99.56;100717.94;4879125;29;20205;-71
2022/12/07 01:35:10;;;;;;;8.15;4.95;;;2.10;99.90;;;1.99;99.40;100716.84;4874449;29;20245;-70
2022/12/07 01:37:40;;;;;;;10.25;5.47;;;2.10;99.90;;;1.98;99.06;100712.53;4871673;29;20248;-71
2022/12/07 01:40:15;;;;;;;9.00;5.68;;;2.10;99.90;;;2.05;98.78;100713.56;4865353;29;20229;-71
2022/12/07 01:42:46;;;;;;;10.52;6.05;;;2.20;99.90;;;2.09;98.36;100722.13;4851242;29;20228;-71
2022/12/07 01:45:46;;;;;;;10.27;6.05;;;2.20;99.90;;;2.06;98.04;100720.59;4863906;29;20227;-71
2022/12/07 01:48:24;;;;;;;9.02;5.45;;;2.20;99.90;;;2.08;97.91;100709.78;4867235;29;20230;-72
2022/12/07 01:51:00;;;;;;;9.82;5.97;;;2.20;99.90;;;2.12;97.49;100709.31;4864557;29;20233;-71
2022/12/07 01:53:33;;;;;;;10.13;5.43;;;2.20;99.90;;;2.14;97.08;100701.97;4869102;29;20735;-71
2022/12/07 01:56:09;;;;;;;8.80;6.65;;;2.20;99.90;;;2.11;97.49;100696.13;4867003;29;20321;-71
2022/12/07 01:58:40;;;;;;;8.30;4.60;;;2.20;99.90;;;2.15;96.82;100692.16;4869951;29;20206;-72
2022/12/07 02:01:09;;;;;;;8.55;4.82;;;2.20;99.90;;;2.19;96.25;100688.19;4866816;29;20210;-72
2022/12/07 02:03:44;;;;;;;10.70;6.03;;;2.30;99.90;;;2.19;95.93;100683.69;4883514;29;20290;-72
2022/12/07 02:06:23;;;;;;;8.13;3.58;;;2.30;99.90;;;2.15;96.61;100682.31;4866668;29;20670;-72
2022/12/07 02:08:52;;;;;;;11.65;4.60;;;2.30;99.90;;;2.02;97.03;100683.69;4867829;29;20305;-72
2022/12/07 02:11:24;;;;;;;7.32;5.22;;;2.20;99.90;;;2.02;97.24;100686.38;4884383;29;20660;-72
2022/12/07 02:13:56;;;;;;;10.38;5.93;;;2.10;99.90;;;1.97;96.21;100675.31;4876348;29;20609;-71
2022/12/07 02:17:05;;;;;;;7.35;4.07;;;2.10;99.90;;;2.05;96.12;100684.22;4869792;29;20307;-72
2022/12/07 02:20:10;;;;;;;4.03;3.13;;;2.20;99.90;;;1.87;96.14;100672.69;4882810;29;20210;-70
2022/12/07 02:23:35;;;;;;;8.30;4.32;;;2.10;99.90;;;1.94;96.32;100673.75;4875112;29;20228;-70
2022/12/07 02:26:51;;;;;;;5.25;3.63;;;2.10;99.90;;;1.86;96.46;100680.84;4863995;29;20225;-71
2022/12/07 02:29:29;;;;;;;10.88;3.97;;;2.00;99.90;;;1.89;96.22;100676.03;4850939;29;20305;-72
2022/12/07 02:32:15;;;;;;;8.43;4.75;;;2.10;99.90;;;1.92;95.93;100673.09;4863086;29;20249;-71
2022/12/07 02:34:52;;;;;;;5.78;4.10;;;2.10;99.90;;;1.74;96.61;100661.56;4881999;29;20742;-72
2022/12/07 02:37:40;;;;;;;7.55;5.68;;;2.00;99.90;;;1.75;96.74;100653.41;4870635;29;20250;-71
2022/12/07 02:40:24;;;;;;;5.70;4.20;;;1.90;99.90;;;1.70;96.91;100657.50;4864639;29;20207;-70
2022/12/07 02:43:08;;;;;;;7.32;4.03;;;1.90;99.90;;;1.62;97.60;100646.75;4875376;29;20215;-72
2022/12/07 02:45:43;;;;;;;8.13;5.10;;;1.80;99.90;;;1.65;97.60;100651.78;4850329;29;20265;-71
2022/12/07 02:48:18;;;;;;;8.73;6.07;;;1.80;99.90;;;1.62;98.30;100646.75;4874571;29;20206;-73
2022/12/07 02:50:52;;;;;;;8.48;4.32;;;1.80;99.90;;;1.73;98.77;100644.72;4862519;29;20197;-71
2022/12/07 02:53:37;;;;;;;12.35;8.07;;;1.80;99.90;;;1.72;98.22;100636.88;4869934;29;20197;-70
2022/12/07 02:56:27;;;;;;;8.60;4.50;;;1.90;99.90;;;1.72;98.58;100648.38;4869259;29;20795;-69
2022/12/07 02:59:16;;;;;;;10.90;6.35;;;1.80;99.90;;;1.70;98.50;100633.50;4879375;29;20660;-70
2022/12/07 03:02:01;;;;;;;7.25;5.30;;;1.80;99.90;;;1.73;99.03;100639.38;4851816;29;20300;-72
2022/12/07 03:04:46;;;;;;;11.00;6.30;;;1.80;99.90;;;1.65;99.55;100627.78;4885381;29;20264;-70
2022/12/07 03:07:32;;;;;;;14.55;6.82;;;1.80;99.90;;;1.80;99.33;100626.25;4881109;29;20209;-71
2022/12/07 03:10:14;;;;;;;9.05;5.32;;;1.90;99.90;;;1.75;99.41;100615.22;4862548;29;20187;-71
2022/12/07 03:12:58;;;;;;;10.15;6.07;;;1.90;99.90;;;1.74;99.68;100614.38;4893611;29;20195;-70
2022/12/07 03:15:34;;;;;;;11.48;5.70;;;1.90;99.90;;;1.67;100.00;100602.66;4946067;24;20234;-74
2022/12/07 03:18:08;;;;;;;13.35;6.70;;;1.90;99.90;;;1.77;100.00;100604.41;4883504;29;20198;-74
2022/12/07 03:20:42;;;;;;;10.05;4.70;;;1.90;99.90;;;1.82;100.00;100600.28;4886884;29;20551;-76
2022/12/07 03:23:17;;;;;;;15.48;6.55;;;2.00;99.90;;;1.85;100.00;100594.63;4905267;29;20229;-74
2022/12/07 03:25:55;;;;;;;10.77;5.07;;;1.90;99.90;;;2.01;100.00;100602.78;4885725;29;20237;-73
2022/12/07 03:28:37;;;;;;;12.05;6.32;;;2.00;99.90;;;2.08;100.00;100589.66;4868293;29;20392;-74
2022/12/07 03:31:17;;;;;;;10.90;5.97;;;2.10;99.90;;;2.04;100.00;100578.44;4867645;29;20199;-76
2022/12/07 03:33:59;;;;;;;9.18;5.30;;;2.10;99.90;;;2.07;100.00;100572.81;4879284;29;20194;-74
2022/12/07 03:36:40;;;;;;;13.07;7.05;;;2.20;99.90;;;2.13;100.00;100571.34;4868309;29;20250;-73
2022/12/07 03:39:24;;;;;;;14.43;6.90;;;2.20;99.90;;;2.19;100.00;100566.22;4907107;29;20302;-74
2022/12/07 03:41:58;;;;;;;14.32;8.00;;;2.30;99.90;;;2.29;100.00;100559.94;4885077;29;20214;-74
2022/12/07 03:44:58;;;;;;;12.88;7.25;;;2.30;99.90;;;2.46;100.00;100551.03;4885544;29;20214;-74
2022/12/07 03:47:34;;;;;;;10.35;5.65;;;2.50;99.90;;;2.40;100.00;100549.00;4886592;29;20191;-74
2022/12/07 03:50:17;;;;;;;14.68;7.55;;;2.40;99.90;;;2.60;99.55;100542.44;4868282;29;20206;-74
2022/12/07 03:52:56;;;;;;;15.63;8.45;;;2.60;99.90;;;2.48;99.63;100539.19;4868350;29;20409;-74
2022/12/07 03:55:35;;;;;;;13.05;8.50;;;2.60;99.90;;;2.50;99.63;100531.03;4893023;29;20229;-75
2022/12/07 03:58:10;;;;;;;15.23;9.20;;;2.60;99.90;;;2.43;99.89;100530.81;4890216;29;20627;-75
2022/12/07 04:00:42;;;;;;;20.50;8.63;;;2.60;99.90;;;2.43;100.00;100535.31;4884385;29;20206;-73
2022/12/07 04:03:15;;;;;;;13.63;7.25;;;2.50;99.90;;;2.55;99.78;100528.72;4892388;29;20221;-74
2022/12/07 04:05:47;;;;;;;18.35;9.50;;;2.60;99.90;;;2.49;100.00;100532.84;4889848;29;20241;-74
2022/12/07 04:08:20;;;;;;;17.88;8.57;;;2.60;99.90;;;2.46;100.00;100525.19;4852917;29;20214;-74
2022/12/07 04:10:50;;;;;;;13.88;8.65;;;2.50;99.90;;;2.42;100.00;100520.31;4893792;29;20197;-73
2022/12/07 04:13:23;;;;;;;15.88;8.43;;;2.50;99.90;;;2.49;100.00;100506.16;4877028;29;20226;-73
2022/12/07 04:15:56;;;;;;;14.07;8.05;;;2.60;99.90;;;2.53;100.00;100506.66;4859681;29;20263;-73
2022/12/07 04:18:26;;;;;;;14.07;9.18;;;2.60;99.90;;;2.65;100.00;100513.41;4856818;29;20199;-74
2022/12/07 04:20:57;;;;;;;14.25;9.25;;;2.70;99.90;;;2.51;100.00;100511.34;4874054;29;20203;-73
2022/12/07 04:23:27;;;;;;;19.48;9.90;;;2.60;99.90;;;2.59;100.00;100514.03;4891306;29;20605;-74
2022/12/07 04:25:57;;;;;;;14.43;10.05;;;2.70;99.90;;;2.61;100.00;100501.38;4861197;29;20247;-74
2022/12/07 04:28:27;;;;;;;15.10;9.25;;;2.70;99.90;;;2.70;100.00;100505.75;4872397;29;20200;-73
2022/12/07 04:30:58;;;;;;;14.10;7.95;;;2.70;99.90;;;2.65;100.00;100497.38;4880132;29;20207;-74
2022/12/07 04:33:33;;;;;;;14.27;9.05;;;2.70;99.90;;;2.52;100.00;100494.28;4889813;29;20194;-73
2022/12/07 04:36:05;;;;;;;12.35;7.88;;;2.60;99.90;;;2.45;100.00;100495.94;4874363;29;20219;-73
2022/12/07 04:38:35;;;;;;;21.55;11.73;;;2.60;99.90;;;2.44;100.00;100483.59;4874386;29;20195;-74
2022/12/07 04:41:10;;;;;;;18.02;9.00;;;2.50;99.90;;;2.50;100.00;100482.94;4882124;29;20233;-74
2022/12/07 04:43:40;;;;;;;23.40;11.88;;;2.60;99.90;;;2.50;100.00;100483.78;4884875;29;20234;-73
2022/12/07 04:46:10;;;;;;;26.27;9.65;;;2.60;99.90;;;2.48;100.00;100487.59;4899580;29;20203;-75
2022/12/07 04:48:44;;;;;;;22.63;10.77;;;2.60;99.90;;;2.55;100.00;100476.13;4877332;29;20668;-75
2022/12/07 04:51:19;;;;;;;15.52;10.25;;;2.60;99.90;;;2.55;100.00;100480.63;4868610;29;20203;-74
2022/12/07 04:53:50;;;;;;;20.55;12.30;;;2.60;99.90;;;2.63;100.00;100484.19;4882037;29;20223;-73
2022/12/07 04:56:21;;;;;;;20.48;10.25;;;2.70;99.90;;;2.60;100.00;100478.31;4880823;29;20278;-73
2022/12/07 04:58:55;;;;;;;20.55;11.98;;;2.70;99.90;;;2.65;100.00;100481.34;4865641;29;20195;-74
2022/12/07 05:01:27;;;;;;;20.45;12.00;;;2.70;99.90;;;2.65;100.00;100475.16;4865256;29;20214;-73
2022/12/07 05:03:58;;;;;;;18.92;11.02;;;2.70;99.90;;;2.55;100.00;100470.78;4882088;29;20195;-72
2022/12/07 05:06:31;;;;;;;17.77;10.15;;;2.70;99.90;;;2.63;100.00;100478.00;4864903;29;20776;-72
2022/12/07 05:09:05;;;;;;;18.42;9.73;;;2.70;99.90;;;2.52;100.00;100475.59;4881804;29;20202;-73
2022/12/07 05:11:41;;;;;;;19.13;11.40;;;2.60;99.90;;;2.64;100.00;100469.00;4864625;29;20190;-74
2022/12/07 05:14:17;;;;;;;14.85;10.18;;;2.70;99.90;;;2.61;100.00;100462.13;4882609;29;20207;-73
2022/12/07 05:16:50;;;;;;;26.15;13.93;;;2.70;99.90;;;2.65;100.00;100459.97;4864663;29;20253;-73
2022/12/07 05:19:22;;;;;;;21.75;12.10;;;2.70;99.90;;;2.81;100.00;100460.00;4858580;29;20211;-73
2022/12/07 05:21:55;;;;;;;25.05;13.32;;;2.80;99.90;;;2.67;100.00;100455.28;4869178;29;20619;-73
2022/12/07 05:24:26;;;;;;;21.83;12.20;;;2.80;99.90;;;2.75;100.00;100458.00;4879825;29;20215;-72
2022/12/07 05:26:57;;;;;;;32.35;14.88;;;2.80;99.90;;;2.76;100.00;100450.84;4871435;29;20215;-74
2022/12/07 05:29:28;;;;;;;22.40;13.40;;;2.80;99.90;;;2.75;100.00;100459.84;4849426;29;20230;-73
2022/12/07 05:32:01;;;;;;;24.00;14.50;;;2.80;99.90;;;2.70;100.00;100460.34;4864489;29;20199;-73
2022/12/07 05:34:41;;;;;;;24.02;11.98;;;2.80;99.90;;;2.81;100.00;100454.66;4864497;29;20199;-73
2022/12/07 05:37:14;;;;;;;23.23;14.02;;;2.80;99.90;;;2.81;100.00;100454.66;4863981;29;20210;-73
2022/12/07 05:39:45;;;;;;;28.52;13.88;;;2.90;99.90;;;2.88;100.00;100455.69;4879982;29;20210;-74
2022/12/07 05:42:17;;;;;;;25.40;13.85;;;2.90;99.90;;;2.83;100.00;100447.34;4878789;29;20598;-73
2022/12/07 05:44:50;;;;;;;30.30;16.42;;;2.90;99.90;;;2.75;100.00;100433.97;4866490;29;20698;-74
2022/12/07 05:47:22;;;;;;;23.60;12.60;;;2.80;99.90;;;2.86;100.00;100441.66;4866813;29;20665;-73
2022/12/07 05:49:51;;;;;;;22.52;13.32;;;2.90;99.90;;;2.90;100.00;100439.50;4880854;29;20702;-75
2022/12/07 05:52:27;;;;;;;28.23;14.93;;;2.90;99.90;;;2.97;100.00;100427.16;4880399;29;20230;-74
2022/12/07 05:54:57;;;;;;;24.60;13.35;;;3.00;99.90;;;2.89;100.00;100433.31;4874512;29;20317;-74
2022/12/07 05:57:27;;;;;;;24.35;13.40;;;2.90;99.90;;;2.91;100.00;100427.78;4883262;29;20226;-74
2022/12/07 05:59:55;;;;;;;25.70;14.63;;;3.00;99.90;;;2.99;100.00;100425.16;4868427;29;20283;-72
2022/12/07 06:02:26;;;;;;;31.00;13.02;;;3.00;99.90;;;2.95;100.00;100416.59;4869499;29;20199;-73
2022/12/07 06:04:56;;;;;;;26.08;15.02;;;3.00;99.90;;;3.02;100.00;100414.97;4868745;29;20310;-73
2022/12/07 06:07:27;;;;;;;22.73;13.45;;;3.10;99.90;;;2.99;100.00;100415.31;4881068;29;20211;-74
2022/12/07 06:09:59;;;;;;;20.70;12.32;;;3.00;99.90;;;2.99;100.00;100409.13;4872806;29;20206;-73
2022/12/07 06:12:34;;;;;;;23.63;14.73;;;3.10;99.90;;;3.00;100.00;100402.78;4877134;29;20209;-73
2022/12/07 06:15:07;;;;;;;24.45;13.07;;;3.10;99.90;;;3.13;100.00;100402.28;4870147;29;20222;-74
2022/12/07 06:17:39;;;;;;;24.48;13.73;;;3.10;99.90;;;3.23;100.00;100402.97;4880794;29;20217;-74
2022/12/07 06:20:10;;;;;;;31.08;12.68;;;3.20;99.90;;;3.32;100.00;100399.28;4861064;29;20231;-72
2022/12/07 06:22:51;;;;;;;28.70;16.65;;;3.30;99.90;;;3.26;100.00;100407.97;4852994;29;20198;-73
2022/12/07 06:25:25;;;;;;;21.33;12.90;;;3.30;99.90;;;3.18;100.00;100394.59;4864292;29;20262;-73
2022/12/07 06:27:56;;;;;;;22.13;13.73;;;3.30;99.90;;;3.25;100.00;100400.94;4863585;29;20199;-73
2022/12/07 06:30:27;;;;;;;21.15;12.43;;;3.30;99.90;;;3.13;100.00;100400.44;4863462;29;20195;-73
2022/12/07 06:32:58;;;;;;;18.63;11.90;;;3.20;99.90;;;3.09;100.00;100393.75;4863199;29;20227;-74
2022/12/07 06:35:29;;;;;;;24.42;11.68;;;3.20;99.90;;;3.11;100.00;100407.78;4873205;29;20207;-74
2022/12/07 06:38:03;;;;;;;17.88;11.77;;;3.20;99.90;;;3.19;100.00;100394.44;4879831;29;20199;-71
2022/12/07 06:40:35;;;;;;;20.42;10.57;;;3.20;99.90;;;3.21;100.00;100395.09;4879562;29;20660;-73
2022/12/07 06:43:07;;;;;;;20.75;11.48;;;3.30;99.90;;;3.17;100.00;100406.28;4863293;29;20685;-73
2022/12/07 06:45:41;;;;;;;17.08;11.35;;;3.20;99.90;;;3.21;100.00;100394.25;4878734;29;20230;-73
2022/12/07 06:48:12;;;;;;;21.45;13.77;;;3.30;99.90;;;3.30;100.00;100394.09;4883678;29;20226;-72
2022/12/07 06:50:45;;;;;;;22.15;13.93;;;3.30;99.90;;;3.25;100.00;100390.25;4861310;29;20278;-74
2022/12/07 06:53:24;;;;;;;25.95;13.10;;;3.30;99.90;;;3.30;100.00;100390.56;4843844;29;20199;-74
2022/12/07 06:55:54;;;;;;;29.05;12.90;;;3.30;99.90;;;3.38;100.00;100395.94;4864512;29;20597;-73
2022/12/07 06:58:24;;;;;;;25.98;12.15;;;3.40;99.90;;;3.24;100.00;100388.59;4870745;29;20284;-73
2022/12/07 07:00:55;;;;;;;21.70;13.70;;;3.30;99.90;;;3.32;100.00;100385.91;4877622;29;20201;-74
2022/12/07 07:03:29;;;;;;;27.88;12.73;;;3.40;99.90;;;3.32;100.00;100389.41;4882397;29;20289;-72
2022/12/07 07:06:03;;;;;;;29.67;13.68;;;3.40;99.90;;;3.34;100.00;100386.59;4871921;29;20218;-72
2022/12/07 07:08:34;;;;;;;19.27;11.57;;;3.40;99.90;;;3.30;100.00;100386.06;4863171;29;20285;-73
2022/12/07 07:11:07;;;;;;;19.77;11.13;;;3.40;99.90;;;3.35;100.00;100393.59;4880805;29;20195;-73
2022/12/07 07:13:50;;;;;;;21.35;12.20;;;3.40;99.90;;;3.45;100.00;100388.91;4864325;29;20626;-74
2022/12/07 07:16:21;;;;;;;27.23;14.52;;;3.40;99.90;;;3.37;100.00;100384.41;4878338;29;20326;-74
2022/12/07 07:18:54;;;;;;;23.83;12.45;;;3.40;99.90;;;3.43;100.00;100396.28;4875837;29;20225;-72
2022/12/07 07:21:26;;;;;;;25.92;12.98;;;3.50;99.90;;;3.56;100.00;100401.94;4880341;29;20184;-74
2022/12/07 07:24:01;;;;;;;19.15;13.18;;;3.60;99.90;;;3.49;100.00;100400.94;4878215;29;20234;-73
2022/12/07 07:26:35;;;;;;;27.90;14.32;;;3.50;99.90;;;3.47;100.00;100394.94;4863329;29;20643;-73
2022/12/07 07:29:06;;;;;;;19.85;12.90;;;3.50;99.90;;;3.47;100.00;100398.44;4864727;29;20312;-72
2022/12/07 07:31:37;;;;;;;22.35;12.10;;;3.50;99.90;;;3.44;100.00;100389.91;4863859;29;20233;-72
2022/12/07 07:34:06;;;;;;;21.63;12.40;;;3.50;99.90;;;3.45;100.00;100394.25;4878679;29;20194;-73
2022/12/07 07:36:37;;;;;;;26.45;13.15;;;3.50;99.90;;;3.48;100.00;100388.59;4879300;29;20218;-73
2022/12/07 07:39:12;;;;;;;19.13;12.73;;;3.50;99.90;;;3.42;100.00;100386.56;4859906;29;20684;-73
2022/12/07 07:41:43;;;;;;;27.23;10.43;;;3.50;99.90;;;3.40;100.00;100389.41;4844066;29;20203;-73
2022/12/07 07:44:16;;;;;;;20.02;10.95;;;3.50;99.90;;;3.46;100.00;100396.75;4844357;29;20200;-73
2022/12/07 07:46:49;;;;;;;17.02;10.23;;;3.50;99.90;;;3.49;100.00;100396.41;4868799;29;20231;-72
2022/12/07 07:49:21;;;;;;;20.63;10.55;;;3.50;99.90;;;3.61;100.00;100391.56;4889163;29;20200;-72
2022/12/07 07:51:53;;;;;;;14.15;9.70;;;3.60;99.90;;;3.65;100.00;100390.22;4859323;29;20199;-71
2022/12/07 07:54:24;;;;;;;13.90;7.65;;;3.70;99.90;;;3.66;100.00;100397.25;4849871;29;20204;-72
2022/12/07 07:56:54;;;;;;;17.42;10.23;;;3.70;99.90;;;3.74;100.00;100399.91;4866496;29;20206;-72
2022/12/07 07:59:26;;;;;;;10.95;8.20;;;3.70;99.90;;;3.64;100.00;100398.41;4870425;29;20662;-72
2022/12/07 08:01:55;;;;;;;15.95;8.40;;;3.70;99.90;;;3.62;100.00;100401.28;4870524;29;20210;-71
2022/12/07 08:04:25;;;;;;;14.93;9.00;;;3.70;99.90;;;3.66;100.00;100407.94;4865210;29;20230;-71
2022/12/07 08:06:57;;;;;;;15.48;8.55;;;3.70;99.90;;;3.68;100.00;100405.91;4882429;29;20191;-70
2022/12/07 08:09:29;;;;;;;14.43;8.60;;;3.70;99.90;;;3.68;100.00;100408.59;4866948;29;20191;-71
2022/12/07 08:12:00;;;;;;;12.02;7.65;;;3.70;99.90;;;3.70;100.00;100414.63;4885054;29;20186;-71
2022/12/07 08:14:35;;;;;;;14.07;6.90;;;3.70;99.90;;;3.74;100.00;100410.59;4871741;29;20306;-71
2022/12/07 08:17:18;;;;;;;10.05;6.43;;;3.70;99.90;;;3.69;100.00;100399.56;4900953;29;20190;-71
2022/12/07 08:19:49;;;;;;;9.52;6.60;;;3.70;99.90;;;3.75;100.00;100400.72;4890574;29;20667;-71
2022/12/07 08:22:20;;;;;;;6.90;5.90;;;3.70;99.90;;;3.77;99.73;100399.56;4878622;29;20301;-72
2022/12/07 08:24:51;;;;;;;6.78;4.82;;;3.80;99.90;;;3.76;99.01;100402.41;4865179;29;20238;-72
2022/12/07 08:27:26;;;;;;;13.27;6.28;;;3.80;99.90;;;3.74;99.09;100402.56;4881864;29;20213;-73
2022/12/07 08:29:56;;;;;;;6.60;4.65;;;3.80;99.90;;;3.73;99.49;100408.91;4880860;29;20193;-72
2022/12/07 08:32:30;;;;;;;6.90;5.35;;;3.80;99.90;;;3.84;98.71;100416.59;4858207;29;20216;-70
2022/12/07 08:35:06;;;;;;;8.55;6.07;;;3.80;99.90;;;3.69;98.23;100407.59;4864887;29;20266;-72
2022/12/07 08:37:35;;;;;;;7.22;5.75;;;3.80;99.90;;;3.75;98.34;100414.13;4864777;29;20194;-72
2022/12/07 08:40:10;;;;;;;8.02;5.78;;;3.80;99.90;;;3.80;97.97;100409.09;4864711;29;20285;-71
2022/12/07 08:42:41;;;;;;;5.90;4.32;;;3.80;99.90;;;3.81;97.20;100416.97;4866219;29;20218;-72
2022/12/07 08:45:17;;;;;;;6.10;3.63;;;3.80;99.90;;;3.68;95.96;100416.63;4870097;29;20230;-72
2022/12/07 08:48:21;;;;;;;7.60;3.83;;;3.80;99.90;;;3.89;96.22;100424.97;4870835;29;20210;-71
2022/12/07 08:50:52;;;;;;;6.80;3.55;;;3.90;99.90;;;3.73;95.35;100424.13;4874491;29;20199;-71
2022/12/07 08:53:23;;;;;;;6.03;3.65;;;3.80;99.90;;;3.85;95.06;100422.81;4863987;29;20327;-72
2022/12/07 08:56:10;;;;;;;11.98;4.25;;;3.90;99.90;;;3.85;94.30;100429.00;4859780;29;20717;-72
2022/12/07 08:58:43;;;;;;;3.88;3.47;;;3.90;99.90;;;3.94;93.78;100430.66;4884719;29;20195;-70
2022/12/07 09:01:16;;;;;;;3.40;2.80;;;3.90;99.90;;;3.87;92.49;100437.66;4857161;29;20225;-72
2022/12/07 09:03:46;;;;;;;5.53;3.30;;;3.90;99.90;;;3.85;91.50;100445.06;4871811;29;20256;-71
2022/12/07 09:06:17;;;;;;;5.00;3.55;;;3.90;49.20;;;3.82;90.87;100434.69;4860679;29;20595;-71
2022/12/07 09:08:58;;;;;;;4.03;2.45;;;3.90;23.10;;;3.91;90.25;100441.72;4863891;29;20191;-72
2022/12/07 09:11:33;;;;;;;8.68;3.22;;;3.90;8.80;;;3.96;89.06;100445.72;4853865;29;20215;-72
2022/12/07 09:14:03;;;;;;;3.60;3.30;;;4.00;1.00;;;3.96;89.17;100461.78;4860504;29;20297;-71
2022/12/07 09:16:33;;;;;;;2.58;1.90;;;3.90;1.00;;;3.92;88.64;100448.72;4872096;24;20223;-69
2022/12/07 09:19:02;;;;;;;3.63;2.00;;;4.00;1.00;;;3.92;87.44;100445.22;4879855;29;20194;-67
2022/12/07 09:21:31;;;;;;;3.80;2.72;;;3.90;1.00;;;3.77;86.30;100458.47;4881716;29;20195;-69
2022/12/07 09:24:01;;;;;;;3.22;2.30;;;3.90;1.00;;;3.77;85.39;100462.97;4884082;29;20226;-68
2022/12/07 09:26:30;;;;;;;2.38;1.85;;;3.80;1.00;;;3.62;84.95;100462.81;4879388;29;20305;-69
2022/12/07 09:29:00;;;;;;;2.80;2.28;;;3.70;99.90;;;3.57;84.73;100457.13;4876734;29;20254;-68
2022/12/07 09:31:29;;;;;;;1.50;1.20;;;3.60;99.90;;;3.63;83.86;100469.81;4877768;29;20297;-68
2022/12/07 09:34:01;;;;;;;2.47;1.45;;;3.70;99.90;;;3.55;82.64;100469.81;4876372;29;20213;-68
2022/12/07 09:36:30;;;;;;;3.20;2.53;;;3.60;99.90;;;3.50;83.21;100450.75;4856733;29;20218;-68
2022/12/07 09:38:59;;;;;;;3.83;2.60;;;3.50;99.90;;;3.55;83.74;100467.16;4879418;29;20199;-68
2022/12/07 09:41:31;;;;;;;4.43;3.30;;;3.60;99.90;;;3.75;83.13;100468.47;4880360;29;20223;-68
2022/12/07 09:44:07;;;;;;;3.20;2.83;;;3.70;99.90;;;3.69;81.66;100474.50;4877891;29;20195;-68
2022/12/07 09:46:40;;;;;;;2.60;2.40;;;3.70;99.90;;;3.64;83.03;100484.03;4885251;29;20211;-68
2022/12/07 09:49:17;;;;;;;3.50;2.55;;;3.70;99.90;;;3.55;84.02;100474.31;4888023;29;20199;-67
2022/12/07 09:51:47;;;;;;;3.15;1.80;;;3.60;99.90;;;3.52;83.71;100480.88;4881718;29;20213;-68
2022/12/07 09:54:18;;;;;;;3.63;2.25;;;3.60;99.90;;;3.46;83.24;100478.84;4879810;29;20209;-68
2022/12/07 09:57:13;;;;;;;4.13;2.22;;;3.50;99.90;;;3.40;84.37;100476.84;4874461;29;20211;-68
2022/12/07 09:59:44;;;;;;;3.10;2.67;;;3.50;99.90;;;3.41;84.65;100467.81;4879074;29;20282;-67
2022/12/07 10:02:36;;;;;;;4.00;1.40;;;3.40;99.90;;;3.36;83.07;100483.53;4879415;29;20199;-66
2022/12/07 10:05:08;;;;;;;2.00;1.70;;;3.40;99.90;;;3.43;84.31;100479.19;4873014;29;20306;-67
2022/12/07 10:07:37;;;;;;;2.45;1.90;;;3.40;99.90;;;3.50;83.33;100489.03;4879053;29;20229;-67
2022/12/07 10:10:16;;;;;;;6.00;2.10;;;3.50;99.90;;;3.65;82.63;100486.53;4878893;29;20926;-69
2022/12/07 10:12:57;;;;;;;2.60;2.40;;;3.60;99.90;;;3.64;82.71;100476.84;4863362;29;20253;-68
2022/12/07 10:18:56;;;;;;;3.10;2.53;;;3.60;99.90;;;3.74;82.23;100480.19;5088132;27;20544;-69
2022/12/07 10:21:26;;;;;;;4.07;2.50;;;3.80;99.90;;;3.71;83.51;100477.00;5067275;28;20607;-67
2022/12/07 10:24:15;;;;;;;2.50;1.30;;;3.70;99.90;;;3.69;82.35;100473.66;5067375;28;20255;-68
2022/12/07 10:26:53;;;;;;;3.08;2.05;;;3.70;99.90;;;3.64;81.14;100474.16;5067037;28;20231;-67
2022/12/07 10:29:25;;;;;;;8.02;3.30;;;3.70;99.90;;;3.76;82.03;100470.16;5067610;28;20211;-68
2022/12/07 10:32:00;;;;;;;3.15;2.65;;;3.80;99.90;;;3.86;81.10;100469.97;5202917;22;20221;-72
2022/12/07 10:34:36;;;;;;;2.75;1.90;;;3.90;99.90;;;4.01;80.55;100476.31;5028455;28;20287;-72
2022/12/07 10:37:21;;;;;;;2.83;1.90;;;3.90;99.90;;;4.02;80.44;100474.50;5028877;28;20209;-73
2022/12/07 10:39:57;;;;;;;5.43;2.85;;;4.00;99.90;;;4.19;80.40;100484.13;5045083;28;20193;-72
2022/12/07 10:42:30;;;;;;;6.95;2.80;;;4.10;99.90;;;4.15;80.80;100477.47;5054236;28;20208;-72
2022/12/07 10:45:15;;;;;;;3.05;2.13;;;4.20;99.90;;;4.06;81.31;100473.97;5039268;28;20259;-74
2022/12/07 10:47:56;;;;;;;3.47;1.65;;;4.10;99.90;;;3.98;82.17;100478.47;5039552;28;20190;-73
2022/12/07 10:51:04;;;;;;;2.20;1.85;;;4.00;99.90;;;3.64;83.44;100479.50;5032810;28;20180;-72
2022/12/07 10:53:59;;;;;;;5.80;3.13;;;3.90;99.90;;;3.50;84.53;100472.16;5033726;28;20227;-71
2022/12/07 10:56:57;;;;;;;2.60;2.40;;;3.70;99.90;;;3.56;84.65;100467.97;5029900;28;20685;-73
2022/12/07 10:59:57;;;;;;;4.70;2.65;;;3.60;99.90;;;3.68;84.88;100463.97;5035992;28;20194;-73